createdAt,value
2023-03-22T00:00:14.709Z,11.40
2023-03-22T00:02:43.114Z,12.50
2023-03-22T00:05:11.419Z,10.53
2023-03-22T00:07:41.049Z,15.07
2023-03-22T00:10:11.460Z,14.83
2023-03-22T00:12:39.737Z,12.67
2023-03-22T00:15:11.279Z,12.93
2023-03-22T00:17:39.583Z,13.03
2023-03-22T00:20:09.153Z,11.33
2023-03-22T00:22:37.601Z,11.53
2023-03-22T00:25:06.329Z,20.23
2023-03-22T00:27:36.046Z,13.80
2023-03-22T00:30:04.523Z,11.63
2023-03-22T00:32:35.882Z,12.17
2023-03-22T00:35:04.678Z,11.33
2023-03-22T00:37:34.313Z,15.10
2023-03-22T00:40:04.693Z,14.50
2023-03-22T00:42:33.069Z,8.30
2023-03-22T00:45:02.729Z,10.37
2023-03-22T00:47:33.178Z,10.13
2023-03-22T00:50:02.130Z,13.57
2023-03-22T00:52:30.963Z,13.43
2023-03-22T00:54:59.401Z,10.60
2023-03-22T00:57:27.634Z,10.87
2023-03-22T00:59:55.835Z,10.90
2023-03-22T01:02:29.599Z,12.17
2023-03-22T01:04:58.215Z,10.57
2023-03-22T01:07:26.438Z,13.03
2023-03-22T01:09:54.729Z,10.57
2023-03-22T01:12:22.952Z,10.67
2023-03-22T01:14:51.148Z,10.63
2023-03-22T01:17:19.410Z,11.13
2023-03-22T01:19:49.124Z,9.17
2023-03-22T01:22:17.367Z,16.73
2023-03-22T01:24:45.880Z,10.67
2023-03-22T01:27:14.073Z,10.73
2023-03-22T01:29:42.442Z,8.80
2023-03-22T01:32:10.837Z,10.83
2023-03-22T01:34:39.124Z,8.73
2023-03-22T01:37:08.679Z,11.00
2023-03-22T01:39:37.002Z,9.13
2023-03-22T01:42:07.319Z,8.10
2023-03-22T01:44:35.650Z,11.70
2023-03-22T01:47:03.914Z,12.70
2023-03-22T01:49:34.028Z,11.33
2023-03-22T01:52:03.626Z,9.53
2023-03-22T01:54:36.910Z,13.40
2023-03-22T01:57:05.353Z,9.40
2023-03-22T01:59:33.760Z,13.30
2023-03-22T02:02:05.399Z,10.43
2023-03-22T02:04:35.890Z,8.53
2023-03-22T02:07:10.055Z,11.83
2023-03-22T02:09:42.286Z,7.00
2023-03-22T02:12:16.200Z,10.03
2023-03-22T02:14:50.809Z,7.20
2023-03-22T02:17:24.242Z,10.63
2023-03-22T02:20:11.120Z,8.27
2023-03-22T02:22:53.119Z,8.93
2023-03-22T02:25:46.289Z,9.73
2023-03-22T02:28:25.652Z,10.50
2023-03-22T02:31:00.976Z,9.53
2023-03-22T02:33:44.188Z,9.30
2023-03-22T02:36:24.955Z,9.27
2023-03-22T02:39:10.389Z,9.30
2023-03-22T02:41:44.765Z,12.87
2023-03-22T02:44:18.068Z,10.00
2023-03-22T02:46:47.574Z,8.70
2023-03-22T02:49:19.809Z,9.40
2023-03-22T02:51:51.089Z,12.37
2023-03-22T02:54:23.145Z,10.20
2023-03-22T02:56:53.266Z,9.40
2023-03-22T02:59:23.921Z,11.47
2023-03-22T03:01:53.424Z,9.30
2023-03-22T03:04:25.258Z,8.47
2023-03-22T03:06:54.713Z,12.03
2023-03-22T03:09:25.267Z,13.67
2023-03-22T03:11:54.878Z,10.90
2023-03-22T03:14:24.492Z,10.17
2023-03-22T03:16:59.852Z,10.27
2023-03-22T03:19:34.163Z,12.57
2023-03-22T03:22:04.698Z,10.60
2023-03-22T03:24:38.021Z,8.50
2023-03-22T03:27:08.908Z,10.00
2023-03-22T03:29:41.175Z,7.20
2023-03-22T03:32:11.915Z,10.10
2023-03-22T03:34:45.623Z,9.47
2023-03-22T03:37:17.343Z,11.73
2023-03-22T03:39:49.939Z,11.20
2023-03-22T03:42:19.354Z,13.20
2023-03-22T03:44:47.650Z,9.03
2023-03-22T03:47:16.462Z,8.53
2023-03-22T03:49:44.901Z,13.70
2023-03-22T03:52:13.318Z,11.40
2023-03-22T03:54:42.763Z,10.17
2023-03-22T03:57:12.396Z,9.00
2023-03-22T03:59:40.775Z,11.90
2023-03-22T04:02:11.436Z,11.70
2023-03-22T04:04:39.844Z,9.27
2023-03-22T04:07:08.264Z,8.80
2023-03-22T04:09:37.515Z,11.30
2023-03-22T04:12:06.042Z,10.13
2023-03-22T04:14:35.769Z,8.70
2023-03-22T04:17:04.052Z,11.17
2023-03-22T04:19:32.618Z,11.00
2023-03-22T04:22:00.884Z,8.40
2023-03-22T04:24:29.577Z,13.80
2023-03-22T04:26:57.793Z,10.67
2023-03-22T04:29:32.205Z,12.03
2023-03-22T04:32:01.881Z,9.60
2023-03-22T04:34:31.506Z,8.57
2023-03-22T04:37:02.621Z,12.83
2023-03-22T04:39:31.523Z,7.60
2023-03-22T04:42:02.150Z,10.20
2023-03-22T04:44:30.644Z,10.17
2023-03-22T04:46:58.852Z,12.20
2023-03-22T04:49:28.506Z,8.63
2023-03-22T04:51:57.135Z,12.70
2023-03-22T04:54:25.878Z,14.00
2023-03-22T04:56:57.275Z,12.70
2023-03-22T04:59:25.630Z,12.33
2023-03-22T05:01:53.953Z,10.20
2023-03-22T05:04:22.496Z,10.10
2023-03-22T05:06:52.553Z,11.17
2023-03-22T05:09:25.812Z,11.27
2023-03-22T05:11:54.165Z,11.97
2023-03-22T05:14:23.595Z,10.63
2023-03-22T05:16:51.879Z,9.23
2023-03-22T05:19:22.309Z,11.00
2023-03-22T05:21:58.494Z,8.70
2023-03-22T05:24:27.130Z,8.67
2023-03-22T05:27:00.946Z,8.50
2023-03-22T05:29:29.529Z,8.40
2023-03-22T05:31:57.733Z,7.70
2023-03-22T05:34:35.991Z,9.60
2023-03-22T05:37:05.809Z,10.10
2023-03-22T05:39:34.196Z,11.00
2023-03-22T05:42:02.475Z,11.90
2023-03-22T05:44:30.926Z,12.30
2023-03-22T05:46:59.246Z,12.13
2023-03-22T05:49:27.724Z,11.63
2023-03-22T05:51:56.082Z,13.03
2023-03-22T05:54:26.493Z,12.00
2023-03-22T05:56:55.877Z,9.37
2023-03-22T05:59:24.178Z,7.43
2023-03-22T06:01:58.780Z,8.30
2023-03-22T06:04:27.124Z,8.37
2023-03-22T06:06:55.586Z,9.87
2023-03-22T06:09:27.000Z,6.90
2023-03-22T06:11:56.693Z,9.57
2023-03-22T06:14:25.004Z,6.93
2023-03-22T06:16:54.282Z,7.83
2023-03-22T06:19:22.619Z,7.23
2023-03-22T06:21:51.843Z,7.63
2023-03-22T06:24:20.355Z,7.17
2023-03-22T06:26:48.643Z,10.23
2023-03-22T06:29:18.259Z,9.83
2023-03-22T06:31:47.844Z,6.20
2023-03-22T06:34:16.128Z,5.20
2023-03-22T06:36:44.425Z,8.17
2023-03-22T06:39:12.706Z,4.73
2023-03-22T06:41:41.120Z,9.17
2023-03-22T06:44:09.433Z,9.83
2023-03-22T06:46:39.151Z,5.30
2023-03-22T06:49:08.022Z,7.77
2023-03-22T06:51:36.524Z,10.67
2023-03-22T06:54:04.938Z,7.73
2023-03-22T06:56:33.462Z,6.43
2023-03-22T06:59:01.900Z,3.63
2023-03-22T07:01:30.353Z,5.90
2023-03-22T07:04:00.200Z,5.37
2023-03-22T07:06:28.533Z,6.80
2023-03-22T07:08:56.725Z,8.57
2023-03-22T07:11:25.870Z,4.83
2023-03-22T07:13:54.623Z,8.43
2023-03-22T07:16:23.321Z,6.87
2023-03-22T07:18:51.588Z,7.73
2023-03-22T07:21:21.229Z,10.83
2023-03-22T07:23:49.527Z,10.70
2023-03-22T07:26:17.824Z,5.10
2023-03-22T07:28:46.147Z,5.80
2023-03-22T07:31:14.795Z,7.67
2023-03-22T07:33:43.076Z,9.53
2023-03-22T07:36:12.001Z,6.43
2023-03-22T07:38:41.952Z,4.90
2023-03-22T07:41:10.581Z,9.60
2023-03-22T07:43:52.376Z,6.57
2023-03-22T07:46:21.583Z,7.20
2023-03-22T07:48:49.888Z,8.03
2023-03-22T07:51:19.279Z,4.77
2023-03-22T07:53:48.946Z,6.33
2023-03-22T07:56:17.467Z,7.87
2023-03-22T07:58:45.840Z,4.93
2023-03-22T08:01:17.317Z,6.60
2023-03-22T08:03:47.609Z,5.13
2023-03-22T08:06:16.432Z,3.37
2023-03-22T08:08:45.964Z,4.47
2023-03-22T08:11:15.650Z,7.50
2023-03-22T08:13:43.894Z,6.00
2023-03-22T08:16:12.266Z,3.60
2023-03-22T08:18:40.610Z,5.97
2023-03-22T08:21:09.045Z,3.70
2023-03-22T08:23:42.040Z,3.93
2023-03-22T08:26:11.524Z,5.17
2023-03-22T08:28:41.176Z,4.17
2023-03-22T08:31:15.020Z,5.83
2023-03-22T08:33:43.664Z,4.53
2023-03-22T08:36:13.155Z,5.27
2023-03-22T08:38:42.364Z,7.53
2023-03-22T08:41:10.723Z,4.17
2023-03-22T08:43:39.084Z,4.20
2023-03-22T08:46:09.007Z,7.90
2023-03-22T08:48:38.038Z,6.17
2023-03-22T08:51:06.898Z,3.40
2023-03-22T08:53:35.520Z,4.00
2023-03-22T08:56:04.043Z,8.53
2023-03-22T08:58:35.266Z,5.33
2023-03-22T09:01:09.477Z,4.80
2023-03-22T09:03:39.133Z,5.87
2023-03-22T09:06:07.778Z,7.80
2023-03-22T09:08:36.240Z,4.60
2023-03-22T09:11:04.936Z,5.23
2023-03-22T09:13:33.732Z,9.43
2023-03-22T09:16:02.172Z,12.60
2023-03-22T09:18:30.953Z,5.27
2023-03-22T09:21:00.610Z,5.67
2023-03-22T09:23:30.342Z,6.23
2023-03-22T09:26:01.510Z,7.50
2023-03-22T09:28:34.850Z,4.83
2023-03-22T09:31:04.291Z,6.17
2023-03-22T09:33:32.583Z,4.43
2023-03-22T09:36:02.547Z,4.33
2023-03-22T09:38:32.473Z,5.00
2023-03-22T09:41:02.764Z,5.20
2023-03-22T09:43:33.208Z,4.43
2023-03-22T09:46:01.906Z,7.90
2023-03-22T09:48:33.631Z,4.83
2023-03-22T09:51:04.473Z,6.87
2023-03-22T09:53:33.590Z,6.40
2023-03-22T09:56:08.987Z,7.10
2023-03-22T09:58:40.526Z,8.23
2023-03-22T10:01:15.210Z,4.87
2023-03-22T10:03:56.144Z,7.33
2023-03-22T10:06:28.296Z,5.27
2023-03-22T10:09:01.362Z,5.30
2023-03-22T10:11:34.027Z,7.50
2023-03-22T10:14:03.939Z,4.43
2023-03-22T10:16:37.706Z,4.60
2023-03-22T10:19:08.656Z,5.53
2023-03-22T10:21:38.424Z,3.87
2023-03-22T10:24:10.024Z,3.10
2023-03-22T10:26:40.166Z,5.20
2023-03-22T10:29:12.930Z,4.33
2023-03-22T10:31:44.139Z,5.70
2023-03-22T10:34:16.850Z,5.17
2023-03-22T10:36:49.537Z,9.40
2023-03-22T10:39:31.363Z,5.43
2023-03-22T10:42:01.562Z,5.30
2023-03-22T10:44:31.583Z,3.33
2023-03-22T10:47:07.330Z,4.77
2023-03-22T10:49:37.993Z,3.20
2023-03-22T10:52:18.719Z,3.83
2023-03-22T10:54:47.158Z,4.67
2023-03-22T10:57:15.438Z,8.13
2023-03-22T10:59:47.308Z,4.73
2023-03-22T11:02:19.006Z,3.27
2023-03-22T11:04:51.169Z,4.50
2023-03-22T11:07:31.024Z,5.30
2023-03-22T11:10:21.781Z,4.30
2023-03-22T11:12:52.444Z,8.43
2023-03-22T11:15:31.011Z,3.40
2023-03-22T11:18:04.164Z,3.90
2023-03-22T11:20:34.182Z,5.20
2023-03-22T11:23:11.208Z,4.60
2023-03-22T11:25:45.877Z,6.47
2023-03-22T11:28:18.876Z,4.87
2023-03-22T11:31:01.043Z,6.13
2023-03-22T11:33:32.044Z,4.20
2023-03-22T11:36:01.324Z,3.90
2023-03-22T11:38:36.830Z,5.00
2023-03-22T11:41:06.505Z,5.93
2023-03-22T11:43:36.186Z,4.63
2023-03-22T11:46:04.752Z,6.80
2023-03-22T11:48:34.337Z,7.87
2023-03-22T11:51:07.357Z,7.80
2023-03-22T11:53:39.295Z,4.10
2023-03-22T11:56:09.038Z,5.10
2023-03-22T11:59:01.283Z,5.13
2023-03-22T12:01:34.513Z,4.00
2023-03-22T12:04:03.557Z,4.00
2023-03-22T12:06:33.712Z,3.27
2023-03-22T12:09:05.216Z,4.10
2023-03-22T12:11:36.083Z,3.83
2023-03-22T12:14:06.740Z,5.33
2023-03-22T12:16:38.566Z,4.53
2023-03-22T12:19:08.901Z,6.90
2023-03-22T12:21:37.257Z,6.20
2023-03-22T12:24:12.800Z,7.43
2023-03-22T12:26:41.336Z,5.10
2023-03-22T12:29:16.116Z,5.33
2023-03-22T12:31:46.614Z,9.00
2023-03-22T12:34:16.531Z,8.17
2023-03-22T12:36:46.873Z,9.10
2023-03-22T12:39:21.875Z,3.40
2023-03-22T12:41:52.323Z,6.50
2023-03-22T12:44:24.128Z,4.73
2023-03-22T12:46:55.409Z,3.30
2023-03-22T12:49:28.650Z,3.60
2023-03-22T12:52:02.461Z,4.70
2023-03-22T12:54:32.470Z,6.73
2023-03-22T12:57:00.894Z,5.77
2023-03-22T12:59:31.379Z,5.57
2023-03-22T13:02:00.879Z,5.00
2023-03-22T13:04:34.634Z,4.43
2023-03-22T13:07:11.788Z,7.20
2023-03-22T13:09:43.222Z,7.33
2023-03-22T13:12:29.928Z,9.20
2023-03-22T13:14:59.565Z,4.50
2023-03-22T13:17:41.974Z,6.20
2023-03-22T13:20:25.691Z,5.60
2023-03-22T13:23:01.486Z,5.13
2023-03-22T13:25:32.617Z,4.27
2023-03-22T13:28:03.285Z,7.57
2023-03-22T13:30:34.870Z,5.27
2023-03-22T13:33:04.536Z,6.30
2023-03-22T13:35:43.960Z,6.87
2023-03-22T13:38:17.623Z,8.50
2023-03-22T13:40:51.303Z,5.80
2023-03-22T13:43:27.537Z,4.33
2023-03-22T13:46:00.485Z,3.50
2023-03-22T13:48:35.981Z,5.37
2023-03-22T13:51:11.473Z,6.53
2023-03-22T13:53:40.584Z,4.50
2023-03-22T13:56:13.542Z,4.30
2023-03-22T13:58:51.236Z,5.03
2023-03-22T14:01:23.187Z,5.00
2023-03-22T14:03:52.386Z,4.60
2023-03-22T14:06:22.655Z,3.27
2023-03-22T14:08:53.091Z,4.43
2023-03-22T14:11:28.815Z,6.87
2023-03-22T14:13:59.184Z,7.23
2023-03-22T14:16:33.556Z,8.50
2023-03-22T14:19:02.120Z,6.90
2023-03-22T14:21:33.577Z,7.03
